Aviation Digital Data Service (ADDS)

Output produced by METARs form (0259 UTC 18 April 2014)
found at http://aviationweather.gov/adds/metars/
 
KFKL 180101Z 1801/1824 12010KT P6SM SCT250 
     FM181500 21009KT P6SM BKN080 
     FM182200 26008KT P6SM BKN080 AMD LTD TO CLD VIS AND WIND